sensor_id;sensor_type;location;lat;lon;timestamp;temperature;humidity
11944;DHT22;6031;50.220;10.122;2023-04-25T00:01:04;8.10;99.90
11944;DHT22;6031;50.220;10.122;2023-04-25T00:03:34;8.10;22.40
11944;DHT22;6031;50.220;10.122;2023-04-25T00:06:00;8.10;1.00
11944;DHT22;6031;50.220;10.122;2023-04-25T00:08:29;8.10;1.00
11944;DHT22;6031;50.220;10.122;2023-04-25T00:10:56;8.10;1.00
11944;DHT22;6031;50.220;10.122;2023-04-25T00:13:22;8.10;1.00
11944;DHT22;6031;50.220;10.122;2023-04-25T00:15:47;8.20;1.00
11944;DHT22;6031;50.220;10.122;2023-04-25T00:18:14;8.20;1.00
11944;DHT22;6031;50.220;10.122;2023-04-25T00:20:40;8.20;1.00
11944;DHT22;6031;50.220;10.122;2023-04-25T00:23:05;8.20;1.00
11944;DHT22;6031;50.220;10.122;2023-04-25T00:25:31;8.20;99.90
11944;DHT22;6031;50.220;10.122;2023-04-25T00:27:56;8.20;99.90
11944;DHT22;6031;50.220;10.122;2023-04-25T00:30:22;8.10;99.90
11944;DHT22;6031;50.220;10.122;2023-04-25T00:32:47;8.10;1.00
11944;DHT22;6031;50.220;10.122;2023-04-25T00:35:14;8.10;1.00
11944;DHT22;6031;50.220;10.122;2023-04-25T00:37:39;8.10;1.00
11944;DHT22;6031;50.220;10.122;2023-04-25T00:40:06;8.10;57.20
11944;DHT22;6031;50.220;10.122;2023-04-25T00:42:32;8.00;99.90
11944;DHT22;6031;50.220;10.122;2023-04-25T00:44:59;8.10;99.90
11944;DHT22;6031;50.220;10.122;2023-04-25T00:47:25;8.00;99.90
11944;DHT22;6031;50.220;10.122;2023-04-25T00:49:51;8.00;99.90
11944;DHT22;6031;50.220;10.122;2023-04-25T00:52:18;8.00;99.90
11944;DHT22;6031;50.220;10.122;2023-04-25T00:54:44;8.10;1.00
11944;DHT22;6031;50.220;10.122;2023-04-25T00:57:10;8.00;99.90
11944;DHT22;6031;50.220;10.122;2023-04-25T00:59:36;8.00;99.90
11944;DHT22;6031;50.220;10.122;2023-04-25T01:02:03;8.00;99.90
11944;DHT22;6031;50.220;10.122;2023-04-25T01:04:29;7.90;99.90
11944;DHT22;6031;50.220;10.122;2023-04-25T01:06:55;7.90;1.00
11944;DHT22;6031;50.220;10.122;2023-04-25T01:09:22;7.90;1.00
11944;DHT22;6031;50.220;10.122;2023-04-25T01:11:48;7.90;1.00
11944;DHT22;6031;50.220;10.122;2023-04-25T01:14:14;7.80;1.00
11944;DHT22;6031;50.220;10.122;2023-04-25T01:16:39;7.80;1.00
11944;DHT22;6031;50.220;10.122;2023-04-25T01:19:10;7.80;1.00
11944;DHT22;6031;50.220;10.122;2023-04-25T01:21:39;7.70;1.00
11944;DHT22;6031;50.220;10.122;2023-04-25T01:24:05;7.70;1.00
11944;DHT22;6031;50.220;10.122;2023-04-25T01:26:31;7.80;29.70
11944;DHT22;6031;50.220;10.122;2023-04-25T01:28:58;7.80;32.80
11944;DHT22;6031;50.220;10.122;2023-04-25T01:31:24;7.80;44.50
11944;DHT22;6031;50.220;10.122;2023-04-25T01:33:49;7.80;99.90
11944;DHT22;6031;50.220;10.122;2023-04-25T01:36:15;7.80;99.90
11944;DHT22;6031;50.220;10.122;2023-04-25T01:38:41;7.80;99.90
11944;DHT22;6031;50.220;10.122;2023-04-25T01:41:07;7.80;99.90
11944;DHT22;6031;50.220;10.122;2023-04-25T01:43:33;7.90;99.90
11944;DHT22;6031;50.220;10.122;2023-04-25T01:45:58;7.90;99.90
11944;DHT22;6031;50.220;10.122;2023-04-25T01:51:31;7.80;99.90
11944;DHT22;6031;50.220;10.122;2023-04-25T01:53:57;7.80;99.90
11944;DHT22;6031;50.220;10.122;2023-04-25T01:56:23;7.80;99.90
11944;DHT22;6031;50.220;10.122;2023-04-25T01:58:49;7.70;99.90
11944;DHT22;6031;50.220;10.122;2023-04-25T02:01:14;7.70;99.90
11944;DHT22;6031;50.220;10.122;2023-04-25T02:03:40;7.70;99.90
11944;DHT22;6031;50.220;10.122;2023-04-25T02:06:05;7.60;99.90
11944;DHT22;6031;50.220;10.122;2023-04-25T02:08:31;7.60;99.90
11944;DHT22;6031;50.220;10.122;2023-04-25T02:10:57;7.60;99.90
11944;DHT22;6031;50.220;10.122;2023-04-25T02:13:23;7.60;99.90
11944;DHT22;6031;50.220;10.122;2023-04-25T02:15:48;7.70;99.90
11944;DHT22;6031;50.220;10.122;2023-04-25T02:18:14;7.70;99.90
11944;DHT22;6031;50.220;10.122;2023-04-25T02:20:41;7.70;99.90
11944;DHT22;6031;50.220;10.122;2023-04-25T02:23:07;7.70;99.90
11944;DHT22;6031;50.220;10.122;2023-04-25T02:25:33;7.70;99.90
11944;DHT22;6031;50.220;10.122;2023-04-25T02:27:58;7.80;99.90
11944;DHT22;6031;50.220;10.122;2023-04-25T02:30:24;7.80;99.90
11944;DHT22;6031;50.220;10.122;2023-04-25T02:32:49;7.90;99.90
11944;DHT22;6031;50.220;10.122;2023-04-25T02:35:15;7.90;99.90
11944;DHT22;6031;50.220;10.122;2023-04-25T02:37:41;7.90;99.90
11944;DHT22;6031;50.220;10.122;2023-04-25T02:40:07;7.90;99.90
11944;DHT22;6031;50.220;10.122;2023-04-25T02:42:33;7.90;99.90
11944;DHT22;6031;50.220;10.122;2023-04-25T02:44:58;7.80;99.90
11944;DHT22;6031;50.220;10.122;2023-04-25T02:47:24;7.80;99.90
11944;DHT22;6031;50.220;10.122;2023-04-25T02:49:49;7.80;99.90
11944;DHT22;6031;50.220;10.122;2023-04-25T02:52:15;7.80;99.90
11944;DHT22;6031;50.220;10.122;2023-04-25T02:54:40;7.80;99.90
11944;DHT22;6031;50.220;10.122;2023-04-25T02:57:06;7.80;99.90
11944;DHT22;6031;50.220;10.122;2023-04-25T02:59:33;7.70;99.90
11944;DHT22;6031;50.220;10.122;2023-04-25T03:01:59;7.70;99.90
11944;DHT22;6031;50.220;10.122;2023-04-25T03:04:24;7.70;99.90
11944;DHT22;6031;50.220;10.122;2023-04-25T03:06:51;7.70;99.90
11944;DHT22;6031;50.220;10.122;2023-04-25T03:09:16;7.60;99.90
11944;DHT22;6031;50.220;10.122;2023-04-25T03:11:43;7.50;99.90
11944;DHT22;6031;50.220;10.122;2023-04-25T03:14:09;7.40;99.90
11944;DHT22;6031;50.220;10.122;2023-04-25T03:16:35;7.40;99.90
11944;DHT22;6031;50.220;10.122;2023-04-25T03:19:00;7.30;99.90
11944;DHT22;6031;50.220;10.122;2023-04-25T03:21:26;7.30;99.90
11944;DHT22;6031;50.220;10.122;2023-04-25T03:23:51;7.30;99.90
11944;DHT22;6031;50.220;10.122;2023-04-25T03:26:17;7.30;99.90
11944;DHT22;6031;50.220;10.122;2023-04-25T03:28:42;7.20;71.40
11944;DHT22;6031;50.220;10.122;2023-04-25T03:31:08;7.10;25.10
11944;DHT22;6031;50.220;10.122;2023-04-25T03:33:33;7.10;12.20
11944;DHT22;6031;50.220;10.122;2023-04-25T03:35:59;7.10;1.00
11944;DHT22;6031;50.220;10.122;2023-04-25T03:38:24;7.10;1.00
11944;DHT22;6031;50.220;10.122;2023-04-25T03:40:51;7.10;1.00
11944;DHT22;6031;50.220;10.122;2023-04-25T03:43:16;7.10;1.00
11944;DHT22;6031;50.220;10.122;2023-04-25T03:45:42;7.10;1.00
11944;DHT22;6031;50.220;10.122;2023-04-25T03:48:07;7.10;1.00
11944;DHT22;6031;50.220;10.122;2023-04-25T03:50:33;7.10;1.80
11944;DHT22;6031;50.220;10.122;2023-04-25T03:52:58;7.10;25.70
11944;DHT22;6031;50.220;10.122;2023-04-25T03:55:24;7.20;99.90
11944;DHT22;6031;50.220;10.122;2023-04-25T03:57:50;7.20;99.90
11944;DHT22;6031;50.220;10.122;2023-04-25T04:00:15;7.20;99.90
11944;DHT22;6031;50.220;10.122;2023-04-25T04:02:41;7.20;99.90
11944;DHT22;6031;50.220;10.122;2023-04-25T04:05:06;7.20;99.90
11944;DHT22;6031;50.220;10.122;2023-04-25T04:07:32;7.20;99.90
11944;DHT22;6031;50.220;10.122;2023-04-25T04:09:59;7.20;99.90
11944;DHT22;6031;50.220;10.122;2023-04-25T04:12:24;7.30;99.90
11944;DHT22;6031;50.220;10.122;2023-04-25T04:14:50;7.20;99.90
11944;DHT22;6031;50.220;10.122;2023-04-25T04:17:15;7.20;99.90
11944;DHT22;6031;50.220;10.122;2023-04-25T04:19:41;7.30;99.90
11944;DHT22;6031;50.220;10.122;2023-04-25T04:22:06;7.30;99.90
11944;DHT22;6031;50.220;10.122;2023-04-25T04:24:32;7.30;99.90
11944;DHT22;6031;50.220;10.122;2023-04-25T04:26:58;7.20;99.90
11944;DHT22;6031;50.220;10.122;2023-04-25T04:29:24;7.20;99.90
11944;DHT22;6031;50.220;10.122;2023-04-25T04:31:50;7.20;99.90
11944;DHT22;6031;50.220;10.122;2023-04-25T04:34:17;7.20;99.90
11944;DHT22;6031;50.220;10.122;2023-04-25T04:36:44;7.20;99.90
11944;DHT22;6031;50.220;10.122;2023-04-25T04:39:11;7.30;99.90
11944;DHT22;6031;50.220;10.122;2023-04-25T04:41:37;7.40;99.90
11944;DHT22;6031;50.220;10.122;2023-04-25T04:44:02;7.40;99.90
11944;DHT22;6031;50.220;10.122;2023-04-25T04:46:28;7.30;99.90
11944;DHT22;6031;50.220;10.122;2023-04-25T04:48:54;7.40;99.90
11944;DHT22;6031;50.220;10.122;2023-04-25T04:51:21;7.40;99.90
11944;DHT22;6031;50.220;10.122;2023-04-25T04:53:47;7.30;99.90
11944;DHT22;6031;50.220;10.122;2023-04-25T04:56:12;7.40;99.90
11944;DHT22;6031;50.220;10.122;2023-04-25T04:58:38;7.30;99.90
11944;DHT22;6031;50.220;10.122;2023-04-25T05:01:03;7.30;99.90
11944;DHT22;6031;50.220;10.122;2023-04-25T05:03:29;7.40;99.90
11944;DHT22;6031;50.220;10.122;2023-04-25T05:05:54;7.40;99.90
11944;DHT22;6031;50.220;10.122;2023-04-25T05:08:20;7.40;41.50
11944;DHT22;6031;50.220;10.122;2023-04-25T05:10:45;7.50;1.00
11944;DHT22;6031;50.220;10.122;2023-04-25T05:13:11;7.40;1.00
11944;DHT22;6031;50.220;10.122;2023-04-25T05:15:37;7.40;1.00
11944;DHT22;6031;50.220;10.122;2023-04-25T05:18:02;7.40;1.00
11944;DHT22;6031;50.220;10.122;2023-04-25T05:20:28;7.50;1.00
11944;DHT22;6031;50.220;10.122;2023-04-25T05:22:55;7.50;1.00
11944;DHT22;6031;50.220;10.122;2023-04-25T05:25:20;7.60;1.00
11944;DHT22;6031;50.220;10.122;2023-04-25T05:27:46;7.60;1.00
11944;DHT22;6031;50.220;10.122;2023-04-25T05:30:11;7.70;1.00
11944;DHT22;6031;50.220;10.122;2023-04-25T05:32:37;8.00;1.00
11944;DHT22;6031;50.220;10.122;2023-04-25T05:35:02;8.10;1.00
11944;DHT22;6031;50.220;10.122;2023-04-25T05:37:28;8.20;1.00
11944;DHT22;6031;50.220;10.122;2023-04-25T05:39:55;8.30;99.90
11944;DHT22;6031;50.220;10.122;2023-04-25T05:42:21;8.50;64.10
11944;DHT22;6031;50.220;10.122;2023-04-25T05:44:47;8.60;72.20
11944;DHT22;6031;50.220;10.122;2023-04-25T05:47:12;8.40;52.50
11944;DHT22;6031;50.220;10.122;2023-04-25T05:49:38;8.40;54.50
11944;DHT22;6031;50.220;10.122;2023-04-25T05:52:03;8.30;1.00
11944;DHT22;6031;50.220;10.122;2023-04-25T05:54:29;8.20;1.00
11944;DHT22;6031;50.220;10.122;2023-04-25T05:56:56;8.30;99.90
11944;DHT22;6031;50.220;10.122;2023-04-25T05:59:21;8.60;1.00
11944;DHT22;6031;50.220;10.122;2023-04-25T06:01:47;9.00;99.90
11944;DHT22;6031;50.220;10.122;2023-04-25T06:04:12;9.70;1.00
11944;DHT22;6031;50.220;10.122;2023-04-25T06:06:38;10.60;1.90
11944;DHT22;6031;50.220;10.122;2023-04-25T06:09:03;11.00;95.80
11944;DHT22;6031;50.220;10.122;2023-04-25T06:11:29;10.70;99.90
11944;DHT22;6031;50.220;10.122;2023-04-25T06:13:55;10.30;99.90
11944;DHT22;6031;50.220;10.122;2023-04-25T06:16:20;10.50;1.00
11944;DHT22;6031;50.220;10.122;2023-04-25T06:18:46;11.30;1.00
11944;DHT22;6031;50.220;10.122;2023-04-25T06:21:11;11.90;1.00
11944;DHT22;6031;50.220;10.122;2023-04-25T06:23:37;12.00;1.00
11944;DHT22;6031;50.220;10.122;2023-04-25T06:26:02;11.40;1.00
11944;DHT22;6031;50.220;10.122;2023-04-25T06:28:28;10.60;99.90
11944;DHT22;6031;50.220;10.122;2023-04-25T06:30:54;11.00;1.00
11944;DHT22;6031;50.220;10.122;2023-04-25T06:33:19;10.80;1.00
11944;DHT22;6031;50.220;10.122;2023-04-25T06:35:46;11.20;56.70
11944;DHT22;6031;50.220;10.122;2023-04-25T06:38:12;11.80;99.90
11944;DHT22;6031;50.220;10.122;2023-04-25T06:40:37;10.90;1.00
11944;DHT22;6031;50.220;10.122;2023-04-25T06:43:04;10.20;99.90
11944;DHT22;6031;50.220;10.122;2023-04-25T06:45:30;10.20;99.90
11944;DHT22;6031;50.220;10.122;2023-04-25T06:47:55;9.50;11.00
11944;DHT22;6031;50.220;10.122;2023-04-25T06:50:21;9.00;99.90
11944;DHT22;6031;50.220;10.122;2023-04-25T06:52:46;8.80;1.00
11944;DHT22;6031;50.220;10.122;2023-04-25T06:55:13;8.40;1.00
11944;DHT22;6031;50.220;10.122;2023-04-25T06:57:38;8.20;99.90
11944;DHT22;6031;50.220;10.122;2023-04-25T07:00:05;8.30;70.00
11944;DHT22;6031;50.220;10.122;2023-04-25T07:02:33;8.20;1.00
11944;DHT22;6031;50.220;10.122;2023-04-25T07:04:59;8.20;1.00
11944;DHT22;6031;50.220;10.122;2023-04-25T07:07:25;8.20;1.00
11944;DHT22;6031;50.220;10.122;2023-04-25T07:09:51;8.30;1.00
11944;DHT22;6031;50.220;10.122;2023-04-25T07:12:16;8.50;1.00
11944;DHT22;6031;50.220;10.122;2023-04-25T07:14:42;8.70;1.00
11944;DHT22;6031;50.220;10.122;2023-04-25T07:17:07;8.90;1.00
11944;DHT22;6031;50.220;10.122;2023-04-25T07:19:33;10.00;99.90
11944;DHT22;6031;50.220;10.122;2023-04-25T07:21:59;11.20;99.90
11944;DHT22;6031;50.220;10.122;2023-04-25T07:24:24;10.90;1.00
11944;DHT22;6031;50.220;10.122;2023-04-25T07:26:50;10.40;1.00
11944;DHT22;6031;50.220;10.122;2023-04-25T07:29:15;11.00;99.90
11944;DHT22;6031;50.220;10.122;2023-04-25T07:31:41;11.40;99.90
11944;DHT22;6031;50.220;10.122;2023-04-25T07:34:06;12.80;34.50
11944;DHT22;6031;50.220;10.122;2023-04-25T07:36:32;14.20;1.00
11944;DHT22;6031;50.220;10.122;2023-04-25T07:38:57;15.30;1.00
11944;DHT22;6031;50.220;10.122;2023-04-25T07:41:23;15.90;1.00
11944;DHT22;6031;50.220;10.122;2023-04-25T07:43:48;15.90;1.00
11944;DHT22;6031;50.220;10.122;2023-04-25T07:46:14;14.50;1.00
11944;DHT22;6031;50.220;10.122;2023-04-25T07:48:40;14.50;1.00
11944;DHT22;6031;50.220;10.122;2023-04-25T07:51:05;15.60;1.00
11944;DHT22;6031;50.220;10.122;2023-04-25T07:53:32;15.60;1.00
11944;DHT22;6031;50.220;10.122;2023-04-25T07:56:00;13.90;1.00
11944;DHT22;6031;50.220;10.122;2023-04-25T07:58:25;14.30;1.00
11944;DHT22;6031;50.220;10.122;2023-04-25T08:00:51;16.00;1.00
11944;DHT22;6031;50.220;10.122;2023-04-25T08:03:16;15.40;1.00
11944;DHT22;6031;50.220;10.122;2023-04-25T08:05:42;16.50;1.00
11944;DHT22;6031;50.220;10.122;2023-04-25T08:08:08;15.90;1.00
11944;DHT22;6031;50.220;10.122;2023-04-25T08:10:33;15.30;1.00
11944;DHT22;6031;50.220;10.122;2023-04-25T08:12:59;15.30;1.00
11944;DHT22;6031;50.220;10.122;2023-04-25T08:15:25;15.00;1.00
11944;DHT22;6031;50.220;10.122;2023-04-25T08:17:51;15.30;1.00
11944;DHT22;6031;50.220;10.122;2023-04-25T08:20:17;16.00;1.00
11944;DHT22;6031;50.220;10.122;2023-04-25T08:22:42;15.30;1.00
11944;DHT22;6031;50.220;10.122;2023-04-25T08:25:08;16.20;1.00
11944;DHT22;6031;50.220;10.122;2023-04-25T08:27:33;16.30;1.00
11944;DHT22;6031;50.220;10.122;2023-04-25T08:29:59;15.80;1.00
11944;DHT22;6031;50.220;10.122;2023-04-25T08:32:25;16.90;1.00
11944;DHT22;6031;50.220;10.122;2023-04-25T08:34:50;17.70;1.00
11944;DHT22;6031;50.220;10.122;2023-04-25T08:37:19;20.00;1.00
11944;DHT22;6031;50.220;10.122;2023-04-25T08:39:45;20.40;1.00
11944;DHT22;6031;50.220;10.122;2023-04-25T08:42:11;17.50;1.00
11944;DHT22;6031;50.220;10.122;2023-04-25T08:44:37;15.30;1.00
11944;DHT22;6031;50.220;10.122;2023-04-25T08:47:04;13.60;1.00
11944;DHT22;6031;50.220;10.122;2023-04-25T08:49:33;12.10;1.00
11944;DHT22;6031;50.220;10.122;2023-04-25T08:52:04;11.70;1.00
11944;DHT22;6031;50.220;10.122;2023-04-25T08:54:33;11.70;1.00
11944;DHT22;6031;50.220;10.122;2023-04-25T08:57:01;14.80;1.00
11944;DHT22;6031;50.220;10.122;2023-04-25T08:59:27;17.60;1.00
11944;DHT22;6031;50.220;10.122;2023-04-25T09:01:53;18.60;1.00
11944;DHT22;6031;50.220;10.122;2023-04-25T09:04:18;19.40;1.00
11944;DHT22;6031;50.220;10.122;2023-04-25T09:06:46;20.70;1.00
11944;DHT22;6031;50.220;10.122;2023-04-25T09:09:11;19.30;1.00
11944;DHT22;6031;50.220;10.122;2023-04-25T09:11:37;17.90;1.00
11944;DHT22;6031;50.220;10.122;2023-04-25T09:19:24;12.90;1.00
11944;DHT22;6031;50.220;10.122;2023-04-25T09:21:50;13.60;1.00
11944;DHT22;6031;50.220;10.122;2023-04-25T09:24:16;14.10;1.00
11944;DHT22;6031;50.220;10.122;2023-04-25T09:26:44;15.00;1.00
11944;DHT22;6031;50.220;10.122;2023-04-25T09:29:10;15.60;1.00
11944;DHT22;6031;50.220;10.122;2023-04-25T09:31:36;14.90;1.00
11944;DHT22;6031;50.220;10.122;2023-04-25T09:34:01;13.90;1.00
11944;DHT22;6031;50.220;10.122;2023-04-25T09:36:27;14.30;1.00
11944;DHT22;6031;50.220;10.122;2023-04-25T09:38:53;14.30;1.00
11944;DHT22;6031;50.220;10.122;2023-04-25T09:41:23;13.70;1.00
11944;DHT22;6031;50.220;10.122;2023-04-25T09:43:49;13.40;1.00
11944;DHT22;6031;50.220;10.122;2023-04-25T09:46:16;14.50;1.00
11944;DHT22;6031;50.220;10.122;2023-04-25T09:48:48;15.20;1.00
11944;DHT22;6031;50.220;10.122;2023-04-25T09:51:14;15.20;1.00
11944;DHT22;6031;50.220;10.122;2023-04-25T09:53:41;15.10;1.00
11944;DHT22;6031;50.220;10.122;2023-04-25T09:56:11;15.70;1.00
11944;DHT22;6031;50.220;10.122;2023-04-25T09:58:41;15.80;1.00
11944;DHT22;6031;50.220;10.122;2023-04-25T10:01:09;15.50;1.00
11944;DHT22;6031;50.220;10.122;2023-04-25T10:03:39;14.50;1.00
11944;DHT22;6031;50.220;10.122;2023-04-25T10:06:12;13.50;1.00
11944;DHT22;6031;50.220;10.122;2023-04-25T10:08:39;12.70;1.00
11944;DHT22;6031;50.220;10.122;2023-04-25T10:11:07;12.60;1.00
11944;DHT22;6031;50.220;10.122;2023-04-25T10:13:34;12.70;1.00
11944;DHT22;6031;50.220;10.122;2023-04-25T10:16:02;12.50;1.00
11944;DHT22;6031;50.220;10.122;2023-04-25T10:18:28;12.30;1.00
11944;DHT22;6031;50.220;10.122;2023-04-25T10:20:59;11.80;1.00
11944;DHT22;6031;50.220;10.122;2023-04-25T10:23:25;11.70;1.00
11944;DHT22;6031;50.220;10.122;2023-04-25T10:25:52;11.80;1.00
11944;DHT22;6031;50.220;10.122;2023-04-25T10:28:18;11.70;1.00
11944;DHT22;6031;50.220;10.122;2023-04-25T10:31:03;11.40;1.00
11944;DHT22;6031;50.220;10.122;2023-04-25T10:33:34;11.20;1.00
11944;DHT22;6031;50.220;10.122;2023-04-25T10:36:18;11.40;1.00
11944;DHT22;6031;50.220;10.122;2023-04-25T10:38:45;11.40;1.00
11944;DHT22;6031;50.220;10.122;2023-04-25T10:41:12;11.40;1.00
11944;DHT22;6031;50.220;10.122;2023-04-25T10:43:41;11.50;1.00
11944;DHT22;6031;50.220;10.122;2023-04-25T10:46:24;12.10;1.00
11944;DHT22;6031;50.220;10.122;2023-04-25T10:51:28;12.60;1.00
11944;DHT22;6031;50.220;10.122;2023-04-25T10:54:06;13.10;1.00
11944;DHT22;6031;50.220;10.122;2023-04-25T10:56:33;13.30;1.00
11944;DHT22;6031;50.220;10.122;2023-04-25T11:04:29;13.80;1.00
11944;DHT22;6031;50.220;10.122;2023-04-25T11:06:58;14.30;1.00
11944;DHT22;6031;50.220;10.122;2023-04-25T11:09:26;14.30;1.00
11944;DHT22;6031;50.220;10.122;2023-04-25T11:11:55;14.60;1.00
11944;DHT22;6031;50.220;10.122;2023-04-25T11:14:22;14.90;1.00
11944;DHT22;6031;50.220;10.122;2023-04-25T11:16:52;14.40;1.00
11944;DHT22;6031;50.220;10.122;2023-04-25T11:19:19;13.20;1.00
11944;DHT22;6031;50.220;10.122;2023-04-25T11:21:45;12.40;1.00
11944;DHT22;6031;50.220;10.122;2023-04-25T11:24:11;12.60;1.00
11944;DHT22;6031;50.220;10.122;2023-04-25T11:26:36;12.80;1.00
11944;DHT22;6031;50.220;10.122;2023-04-25T11:29:03;13.20;1.00
11944;DHT22;6031;50.220;10.122;2023-04-25T11:31:29;13.00;1.00
11944;DHT22;6031;50.220;10.122;2023-04-25T11:33:56;13.20;1.00
11944;DHT22;6031;50.220;10.122;2023-04-25T11:36:26;12.90;1.00
11944;DHT22;6031;50.220;10.122;2023-04-25T11:38:52;13.00;1.00
11944;DHT22;6031;50.220;10.122;2023-04-25T11:41:21;12.70;1.00
11944;DHT22;6031;50.220;10.122;2023-04-25T11:43:47;12.60;1.00
11944;DHT22;6031;50.220;10.122;2023-04-25T11:46:14;12.70;1.00
11944;DHT22;6031;50.220;10.122;2023-04-25T11:48:40;12.70;1.00
11944;DHT22;6031;50.220;10.122;2023-04-25T11:51:06;12.60;1.00
11944;DHT22;6031;50.220;10.122;2023-04-25T11:53:32;12.80;1.00
11944;DHT22;6031;50.220;10.122;2023-04-25T11:55:57;12.90;1.00
11944;DHT22;6031;50.220;10.122;2023-04-25T11:58:23;13.10;1.00
11944;DHT22;6031;50.220;10.122;2023-04-25T12:00:48;13.10;1.00
11944;DHT22;6031;50.220;10.122;2023-04-25T12:03:14;12.70;1.00
11944;DHT22;6031;50.220;10.122;2023-04-25T12:05:39;12.70;1.00
11944;DHT22;6031;50.220;10.122;2023-04-25T12:08:12;12.60;1.00
11944;DHT22;6031;50.220;10.122;2023-04-25T12:10:39;12.70;1.00
11944;DHT22;6031;50.220;10.122;2023-04-25T12:13:23;12.80;1.00
11944;DHT22;6031;50.220;10.122;2023-04-25T12:15:49;12.40;1.00
11944;DHT22;6031;50.220;10.122;2023-04-25T12:18:15;12.30;1.00
11944;DHT22;6031;50.220;10.122;2023-04-25T12:20:43;12.00;1.00
11944;DHT22;6031;50.220;10.122;2023-04-25T12:23:09;11.80;1.00
11944;DHT22;6031;50.220;10.122;2023-04-25T12:25:39;11.80;1.00
11944;DHT22;6031;50.220;10.122;2023-04-25T12:31:00;12.10;1.00
11944;DHT22;6031;50.220;10.122;2023-04-25T12:33:37;12.40;1.00
11944;DHT22;6031;50.220;10.122;2023-04-25T12:36:04;13.00;1.00
11944;DHT22;6031;50.220;10.122;2023-04-25T12:38:36;13.70;1.00
11944;DHT22;6031;50.220;10.122;2023-04-25T12:41:02;13.70;1.00
11944;DHT22;6031;50.220;10.122;2023-04-25T12:43:28;13.50;1.00
11944;DHT22;6031;50.220;10.122;2023-04-25T12:45:55;12.70;1.00
11944;DHT22;6031;50.220;10.122;2023-04-25T12:48:21;12.40;1.00
11944;DHT22;6031;50.220;10.122;2023-04-25T12:50:47;12.10;1.00
11944;DHT22;6031;50.220;10.122;2023-04-25T12:53:18;12.20;1.00
11944;DHT22;6031;50.220;10.122;2023-04-25T12:55:44;12.10;1.00
11944;DHT22;6031;50.220;10.122;2023-04-25T12:58:16;12.10;1.00
11944;DHT22;6031;50.220;10.122;2023-04-25T13:00:43;12.10;1.00
11944;DHT22;6031;50.220;10.122;2023-04-25T13:03:09;11.80;1.00
11944;DHT22;6031;50.220;10.122;2023-04-25T13:05:36;11.70;1.00
11944;DHT22;6031;50.220;10.122;2023-04-25T13:08:02;11.70;1.00
11944;DHT22;6031;50.220;10.122;2023-04-25T13:10:28;11.90;1.00
11944;DHT22;6031;50.220;10.122;2023-04-25T13:12:53;12.00;1.00
11944;DHT22;6031;50.220;10.122;2023-04-25T13:15:19;11.80;1.00
11944;DHT22;6031;50.220;10.122;2023-04-25T13:17:45;11.90;1.00
11944;DHT22;6031;50.220;10.122;2023-04-25T13:20:10;12.10;1.00
11944;DHT22;6031;50.220;10.122;2023-04-25T13:22:38;12.10;1.00
11944;DHT22;6031;50.220;10.122;2023-04-25T13:25:05;12.20;1.00
11944;DHT22;6031;50.220;10.122;2023-04-25T13:27:31;12.50;1.00
11944;DHT22;6031;50.220;10.122;2023-04-25T13:29:58;12.90;1.00
11944;DHT22;6031;50.220;10.122;2023-04-25T13:32:23;12.60;1.00
11944;DHT22;6031;50.220;10.122;2023-04-25T13:34:51;12.60;1.00
11944;DHT22;6031;50.220;10.122;2023-04-25T13:37:17;12.20;1.00
11944;DHT22;6031;50.220;10.122;2023-04-25T13:39:42;12.00;1.00
11944;DHT22;6031;50.220;10.122;2023-04-25T13:42:07;11.80;1.00
11944;DHT22;6031;50.220;10.122;2023-04-25T13:44:33;11.70;1.00
11944;DHT22;6031;50.220;10.122;2023-04-25T13:46:58;11.70;1.00
11944;DHT22;6031;50.220;10.122;2023-04-25T13:49:26;11.90;1.00
11944;DHT22;6031;50.220;10.122;2023-04-25T13:51:51;12.10;1.00
11944;DHT22;6031;50.220;10.122;2023-04-25T13:54:17;12.20;1.00
11944;DHT22;6031;50.220;10.122;2023-04-25T13:56:42;12.00;1.00
11944;DHT22;6031;50.220;10.122;2023-04-25T13:59:08;11.90;1.00
11944;DHT22;6031;50.220;10.122;2023-04-25T14:01:34;12.20;1.00
11944;DHT22;6031;50.220;10.122;2023-04-25T14:04:03;12.40;1.00
11944;DHT22;6031;50.220;10.122;2023-04-25T14:06:30;12.40;1.00
11944;DHT22;6031;50.220;10.122;2023-04-25T14:08:56;12.20;1.00
11944;DHT22;6031;50.220;10.122;2023-04-25T14:11:22;12.40;1.00
11944;DHT22;6031;50.220;10.122;2023-04-25T14:13:47;11.90;1.00
11944;DHT22;6031;50.220;10.122;2023-04-25T14:16:15;11.30;1.00
11944;DHT22;6031;50.220;10.122;2023-04-25T14:18:41;11.30;1.00
11944;DHT22;6031;50.220;10.122;2023-04-25T14:21:06;11.30;1.00
11944;DHT22;6031;50.220;10.122;2023-04-25T14:23:31;11.40;1.00
11944;DHT22;6031;50.220;10.122;2023-04-25T14:25:57;11.40;1.00
11944;DHT22;6031;50.220;10.122;2023-04-25T14:28:22;11.40;1.00
11944;DHT22;6031;50.220;10.122;2023-04-25T14:30:48;11.70;1.00
11944;DHT22;6031;50.220;10.122;2023-04-25T14:33:13;12.00;1.00
11944;DHT22;6031;50.220;10.122;2023-04-25T14:35:39;12.40;1.00
11944;DHT22;6031;50.220;10.122;2023-04-25T14:38:05;12.70;1.00
11944;DHT22;6031;50.220;10.122;2023-04-25T14:40:30;12.80;1.00
11944;DHT22;6031;50.220;10.122;2023-04-25T14:42:56;12.80;1.00
11944;DHT22;6031;50.220;10.122;2023-04-25T14:45:21;13.10;1.00
11944;DHT22;6031;50.220;10.122;2023-04-25T14:47:47;12.90;1.00
11944;DHT22;6031;50.220;10.122;2023-04-25T14:50:12;13.20;1.00
11944;DHT22;6031;50.220;10.122;2023-04-25T14:52:38;12.30;1.00
11944;DHT22;6031;50.220;10.122;2023-04-25T14:55:04;12.30;1.00
11944;DHT22;6031;50.220;10.122;2023-04-25T14:57:31;12.40;1.00
11944;DHT22;6031;50.220;10.122;2023-04-25T14:59:57;12.30;1.00
11944;DHT22;6031;50.220;10.122;2023-04-25T15:02:23;12.40;1.00
11944;DHT22;6031;50.220;10.122;2023-04-25T15:04:49;12.50;1.00
11944;DHT22;6031;50.220;10.122;2023-04-25T15:07:15;12.70;1.00
11944;DHT22;6031;50.220;10.122;2023-04-25T15:09:40;12.70;1.00
11944;DHT22;6031;50.220;10.122;2023-04-25T15:12:06;12.80;1.00
11944;DHT22;6031;50.220;10.122;2023-04-25T15:14:31;13.20;1.00
11944;DHT22;6031;50.220;10.122;2023-04-25T15:16:59;14.10;1.00
11944;DHT22;6031;50.220;10.122;2023-04-25T15:19:25;14.20;1.00
11944;DHT22;6031;50.220;10.122;2023-04-25T15:21:50;13.90;1.00
11944;DHT22;6031;50.220;10.122;2023-04-25T15:24:16;13.20;1.00
11944;DHT22;6031;50.220;10.122;2023-04-25T15:26:41;13.10;1.00
11944;DHT22;6031;50.220;10.122;2023-04-25T15:29:07;12.60;1.00
11944;DHT22;6031;50.220;10.122;2023-04-25T15:31:32;12.70;1.00
11944;DHT22;6031;50.220;10.122;2023-04-25T15:33:58;12.70;1.00
11944;DHT22;6031;50.220;10.122;2023-04-25T15:36:23;12.70;1.00
11944;DHT22;6031;50.220;10.122;2023-04-25T15:38:49;12.50;1.00
11944;DHT22;6031;50.220;10.122;2023-04-25T15:41:15;12.40;1.00
11944;DHT22;6031;50.220;10.122;2023-04-25T15:43:40;12.40;1.00
11944;DHT22;6031;50.220;10.122;2023-04-25T15:46:06;12.40;1.00
11944;DHT22;6031;50.220;10.122;2023-04-25T15:48:32;12.40;1.00
11944;DHT22;6031;50.220;10.122;2023-04-25T15:50:58;12.20;1.00
11944;DHT22;6031;50.220;10.122;2023-04-25T15:53:23;12.20;1.00
11944;DHT22;6031;50.220;10.122;2023-04-25T15:55:49;12.00;1.00
11944;DHT22;6031;50.220;10.122;2023-04-25T15:58:15;11.60;1.00
11944;DHT22;6031;50.220;10.122;2023-04-25T16:00:40;11.50;1.00